createdAt,value
2023-08-12T00:04:28.541Z,14.80
2023-08-12T00:09:36.009Z,14.80
2023-08-12T00:14:42.979Z,14.70
2023-08-12T00:19:49.769Z,14.80
2023-08-12T00:24:57.158Z,14.70
2023-08-12T00:30:04.513Z,14.70
2023-08-12T00:35:11.811Z,15.00
2023-08-12T00:40:19.023Z,14.80
2023-08-12T00:45:26.804Z,14.60
2023-08-12T00:50:34.241Z,14.50
2023-08-12T00:55:41.251Z,14.60
2023-08-12T01:00:49.057Z,14.40
2023-08-12T01:05:56.259Z,14.50
2023-08-12T01:11:13.189Z,14.70
2023-08-12T01:16:23.846Z,14.60
2023-08-12T01:21:33.599Z,14.50
2023-08-12T01:26:40.457Z,14.40
2023-08-12T01:32:11.275Z,14.50
2023-08-12T01:37:22.706Z,14.60
2023-08-12T01:42:31.466Z,14.50
2023-08-12T01:47:38.979Z,14.60
2023-08-12T01:52:46.318Z,14.50
2023-08-12T01:57:53.854Z,14.60
2023-08-12T02:03:01.105Z,14.50
2023-08-12T02:08:09.058Z,14.50
2023-08-12T02:13:16.617Z,14.60
2023-08-12T02:18:23.927Z,14.40
2023-08-12T02:23:31.052Z,14.40
2023-08-12T02:28:38.307Z,14.40
2023-08-12T02:33:45.979Z,14.50
2023-08-12T02:38:53.584Z,14.30
2023-08-12T02:44:01.048Z,14.20
2023-08-12T02:49:11.578Z,14.30
2023-08-12T02:54:16.892Z,14.40
2023-08-12T02:59:23.773Z,14.40
2023-08-12T03:04:31.991Z,14.50
2023-08-12T03:09:39.439Z,14.40
2023-08-12T03:14:46.505Z,14.40
2023-08-12T03:19:53.420Z,14.50
2023-08-12T03:25:00.712Z,14.40
2023-08-12T03:30:09.477Z,14.40
2023-08-12T03:35:18.501Z,14.30
2023-08-12T03:40:25.182Z,14.30
2023-08-12T03:45:32.034Z,14.20
2023-08-12T03:50:40.657Z,14.20
2023-08-12T03:55:47.467Z,14.10
2023-08-12T04:00:54.319Z,14.10
2023-08-12T04:06:01.291Z,14.20
2023-08-12T04:11:08.236Z,14.00
2023-08-12T04:16:15.559Z,14.10
2023-08-12T04:21:22.427Z,14.20
2023-08-12T04:26:29.374Z,14.30
2023-08-12T04:31:36.635Z,14.00
2023-08-12T04:36:44.530Z,13.90
2023-08-12T04:41:51.686Z,14.20
2023-08-12T04:46:58.648Z,14.50
2023-08-12T04:52:05.451Z,14.60
2023-08-12T04:57:12.508Z,14.70
2023-08-12T05:02:21.307Z,14.60
2023-08-12T05:07:28.453Z,14.50
2023-08-12T05:12:35.237Z,14.50
2023-08-12T05:17:42.050Z,14.40
2023-08-12T05:22:49.136Z,14.50
2023-08-12T05:27:56.320Z,14.60
2023-08-12T05:33:04.162Z,14.70
2023-08-12T05:38:11.627Z,14.70
2023-08-12T05:43:19.024Z,14.70
2023-08-12T05:48:25.877Z,14.90
2023-08-12T05:53:33.572Z,15.10
2023-08-12T05:58:40.460Z,15.10
2023-08-12T06:03:47.492Z,15.20
2023-08-12T06:08:54.454Z,15.30
2023-08-12T06:14:01.528Z,15.40
2023-08-12T06:19:09.072Z,15.40
2023-08-12T06:24:16.088Z,15.40
2023-08-12T06:29:22.981Z,15.40
2023-08-12T06:34:29.927Z,15.50
2023-08-12T06:39:36.957Z,15.70
2023-08-12T06:44:44.002Z,15.70
2023-08-12T06:49:51.336Z,15.90
2023-08-12T06:54:58.297Z,16.10
2023-08-12T07:00:06.703Z,16.20
2023-08-12T07:05:13.571Z,16.30
2023-08-12T07:10:23.003Z,16.50
2023-08-12T07:15:29.144Z,16.70
2023-08-12T07:20:37.710Z,16.90
2023-08-12T07:25:44.720Z,16.90
2023-08-12T07:30:54.758Z,17.30
2023-08-12T07:36:02.049Z,17.50
2023-08-12T07:41:09.488Z,17.90
2023-08-12T07:46:16.530Z,17.90
2023-08-12T07:51:23.778Z,17.90
2023-08-12T07:56:32.010Z,17.90
2023-08-12T08:01:39.388Z,18.10
2023-08-12T08:06:48.632Z,18.60
2023-08-12T08:11:57.336Z,19.00
2023-08-12T08:17:03.945Z,19.50
2023-08-12T08:22:11.240Z,20.30
2023-08-12T08:27:18.328Z,20.10
2023-08-12T08:32:25.310Z,20.50
2023-08-12T08:37:32.136Z,21.00
2023-08-12T08:42:40.298Z,21.70
2023-08-12T08:47:48.497Z,22.40
2023-08-12T08:52:55.792Z,22.70
2023-08-12T08:58:05.602Z,22.80
2023-08-12T09:03:14.260Z,22.50
2023-08-12T09:08:21.310Z,22.90
2023-08-12T09:13:28.339Z,23.10
2023-08-12T09:18:35.613Z,23.30
2023-08-12T09:23:45.808Z,23.80
2023-08-12T09:28:55.012Z,23.90
2023-08-12T09:34:09.072Z,23.60
2023-08-12T09:39:16.959Z,23.60
2023-08-12T09:44:24.770Z,24.00
2023-08-12T09:49:31.722Z,24.00
2023-08-12T09:54:39.064Z,24.50
2023-08-12T09:59:48.288Z,24.20
2023-08-12T10:04:57.955Z,24.80
2023-08-12T10:10:07.013Z,24.80
2023-08-12T10:15:14.710Z,25.40
2023-08-12T10:20:27.618Z,25.70
2023-08-12T10:25:35.782Z,25.00
2023-08-12T10:30:43.842Z,24.80
2023-08-12T10:35:52.480Z,25.40
2023-08-12T10:41:20.023Z,25.10
2023-08-12T10:46:36.977Z,25.60
2023-08-12T10:51:55.257Z,24.50
2023-08-12T10:57:17.252Z,25.20
2023-08-12T11:02:30.815Z,25.80
2023-08-12T11:07:45.018Z,25.30
2023-08-12T11:12:59.894Z,25.50
2023-08-12T11:18:08.669Z,25.20
2023-08-12T11:23:16.436Z,25.80
2023-08-12T11:28:23.566Z,25.40
2023-08-12T11:33:30.628Z,24.60
2023-08-12T11:38:37.912Z,25.40
2023-08-12T11:43:44.733Z,25.40
2023-08-12T11:48:52.891Z,25.00
2023-08-12T11:54:01.042Z,25.80
2023-08-12T11:59:08.364Z,25.50
2023-08-12T12:04:15.472Z,25.20
2023-08-12T12:09:22.823Z,25.10
2023-08-12T12:14:30.868Z,25.10
2023-08-12T12:19:38.133Z,25.40
2023-08-12T12:24:51.637Z,25.40
2023-08-12T12:29:58.636Z,25.70
2023-08-12T12:35:07.698Z,25.40
2023-08-12T12:40:15.640Z,25.60
2023-08-12T12:45:24.615Z,25.40
2023-08-12T12:50:31.803Z,25.30
2023-08-12T12:55:39.511Z,25.40
2023-08-12T13:00:46.391Z,25.80
2023-08-12T13:05:54.189Z,26.00
2023-08-12T13:11:01.188Z,26.10
2023-08-12T13:16:09.749Z,26.20
2023-08-12T13:21:19.174Z,25.60
2023-08-12T13:26:25.556Z,25.50
2023-08-12T13:31:32.439Z,25.70
2023-08-12T13:36:39.621Z,25.60
2023-08-12T13:41:46.636Z,25.80
2023-08-12T13:46:53.436Z,25.80
2023-08-12T13:52:02.008Z,26.00
2023-08-12T13:57:09.214Z,26.00
2023-08-12T14:02:17.355Z,25.60
2023-08-12T14:07:24.667Z,25.80
2023-08-12T14:12:31.768Z,26.20
2023-08-12T14:17:38.772Z,26.10
2023-08-12T14:22:46.497Z,25.90
2023-08-12T14:27:53.432Z,25.60
2023-08-12T14:33:00.604Z,25.60
2023-08-12T14:38:07.444Z,25.60
2023-08-12T14:43:14.681Z,25.60
2023-08-12T14:48:21.571Z,25.60
2023-08-12T14:53:29.377Z,25.60
2023-08-12T14:58:37.353Z,25.60
2023-08-12T15:03:44.546Z,25.50
2023-08-12T15:08:52.180Z,25.00
2023-08-12T15:14:00.148Z,25.40
2023-08-12T15:19:07.519Z,25.30
2023-08-12T15:24:15.176Z,24.80
2023-08-12T15:29:22.035Z,25.00
2023-08-12T15:34:29.248Z,24.80
2023-08-12T15:39:36.260Z,24.60
2023-08-12T15:44:43.499Z,24.80
2023-08-12T15:49:50.870Z,24.70
2023-08-12T15:54:58.375Z,24.30
2023-08-12T16:00:08.396Z,24.50
2023-08-12T16:05:15.312Z,24.30
2023-08-12T16:10:22.280Z,24.20
2023-08-12T16:15:29.137Z,24.10
2023-08-12T16:20:36.084Z,24.10
2023-08-12T16:25:43.031Z,24.10
2023-08-12T16:30:50.126Z,23.80
2023-08-12T16:35:57.427Z,23.80
2023-08-12T16:41:05.294Z,23.80
2023-08-12T16:46:12.538Z,23.40
2023-08-12T16:51:19.457Z,23.40
2023-08-12T16:56:26.440Z,23.30
2023-08-12T17:01:33.957Z,23.10
2023-08-12T17:06:41.779Z,23.00
2023-08-12T17:11:49.206Z,22.90
2023-08-12T17:16:56.383Z,22.90
2023-08-12T17:22:03.515Z,22.80
2023-08-12T17:27:11.090Z,22.50
2023-08-12T17:32:18.132Z,22.30
2023-08-12T17:37:28.462Z,22.20
2023-08-12T17:42:36.045Z,22.00
2023-08-12T17:47:44.492Z,21.90
2023-08-12T17:52:51.484Z,21.60
2023-08-12T17:57:59.689Z,21.50
2023-08-12T18:03:07.308Z,21.40
2023-08-12T18:08:14.535Z,21.10
2023-08-12T18:13:21.474Z,20.80
2023-08-12T18:18:29.300Z,20.80
2023-08-12T18:23:36.517Z,20.60
2023-08-12T18:28:43.619Z,20.60
2023-08-12T18:33:50.522Z,20.30
2023-08-12T18:38:57.926Z,20.10
2023-08-12T18:44:05.130Z,20.20
2023-08-12T18:49:11.989Z,20.00
2023-08-12T18:54:19.120Z,19.90
2023-08-12T18:59:26.415Z,20.00
2023-08-12T19:04:33.594Z,19.90
2023-08-12T19:09:40.524Z,19.70
2023-08-12T19:14:48.186Z,19.60
2023-08-12T19:19:55.313Z,19.50
2023-08-12T19:25:02.654Z,19.40
2023-08-12T19:30:11.393Z,19.40
2023-08-12T19:35:18.961Z,19.00
2023-08-12T19:40:27.444Z,19.20
2023-08-12T19:45:34.702Z,19.30
2023-08-12T19:50:43.220Z,19.40
2023-08-12T19:55:50.584Z,19.20
2023-08-12T20:00:57.618Z,19.20
2023-08-12T20:06:05.679Z,18.90
2023-08-12T20:11:12.772Z,19.00
2023-08-12T20:16:19.683Z,18.80
2023-08-12T20:21:26.704Z,18.70
2023-08-12T20:26:35.182Z,18.80
2023-08-12T20:31:42.251Z,18.90
2023-08-12T20:36:49.771Z,18.80
2023-08-12T20:41:56.559Z,18.70
2023-08-12T20:47:03.929Z,18.80
2023-08-12T20:52:11.116Z,18.70
2023-08-12T20:57:18.152Z,18.70
2023-08-12T21:02:25.634Z,18.70
2023-08-12T21:07:32.651Z,18.40
2023-08-12T21:12:40.640Z,18.50
2023-08-12T21:17:47.904Z,18.40
2023-08-12T21:22:54.964Z,18.40
2023-08-12T21:28:02.132Z,18.50
2023-08-12T21:33:09.522Z,18.60
2023-08-12T21:38:16.400Z,18.50
2023-08-12T21:43:23.765Z,18.30
2023-08-12T21:48:31.098Z,18.10
2023-08-12T21:53:38.019Z,18.20
2023-08-12T21:58:45.657Z,18.10
2023-08-12T22:03:52.657Z,17.90
2023-08-12T22:08:59.709Z,18.00
2023-08-12T22:14:07.121Z,17.80
2023-08-12T22:19:14.349Z,18.00
2023-08-12T22:24:21.974Z,17.70
2023-08-12T22:29:28.958Z,17.90
2023-08-12T22:34:36.914Z,18.10
2023-08-12T22:39:44.126Z,18.00
2023-08-12T22:44:51.908Z,18.00
2023-08-12T22:49:59.285Z,17.90
2023-08-12T22:55:07.405Z,17.80
2023-08-12T23:00:15.562Z,17.60
2023-08-12T23:05:22.597Z,17.70
2023-08-12T23:10:29.797Z,17.70
2023-08-12T23:15:37.574Z,17.80
2023-08-12T23:20:45.006Z,18.00
2023-08-12T23:25:52.631Z,17.90
2023-08-12T23:31:00.232Z,17.70
2023-08-12T23:36:07.615Z,17.70
2023-08-12T23:41:15.028Z,17.60
2023-08-12T23:46:22.119Z,17.40
2023-08-12T23:51:29.576Z,17.40
2023-08-12T23:56:38.023Z,17.50
